Time,TemperatureF,DewpointF,PressureIn,WindDirection,WindDirectionDegrees,WindSpeedMPH,WindSpeedGustMPH,Humidity,HourlyPrecipIn,Conditions,Clouds,dailyrainin,SoftwareType,DateUTC
2013-11-03 00:00:00,-999.0,-99.9,29.70,North,-999,-999.0,-999.0,-999,0.00,,,0.00,weatherlink.com 1.10,2013-11-03 04:00:00,
2013-11-03 00:15:00,-999.0,-99.9,29.72,North,-999,-999.0,-999.0,-999,0.00,,,0.00,weatherlink.com 1.10,2013-11-03 04:15:00,
2013-11-03 00:30:00,-999.0,-99.9,29.72,North,-999,-999.0,-999.0,-999,0.00,,,0.00,weatherlink.com 1.10,2013-11-03 04:30:00,
2013-11-03 00:45:00,-999.0,-99.9,29.73,North,-999,-999.0,-999.0,-999,0.00,,,0.00,weatherlink.com 1.10,2013-11-03 04:45:00,
2013-11-03 01:00:00,-999.0,-99.9,29.73,North,-999,-999.0,-999.0,-999,0.00,,,0.00,weatherlink.com 1.10,2013-11-03 05:00:00,
2013-11-03 01:15:00,-999.0,-99.9,29.73,North,-999,-999.0,-999.0,-999,0.00,,,0.00,weatherlink.com 1.10,2013-11-03 05:15:00,
2013-11-03 01:30:00,-999.0,-99.9,29.73,North,-999,-999.0,-999.0,-999,0.00,,,0.00,weatherlink.com 1.10,2013-11-03 05:30:00,
2013-11-03 01:45:00,-999.0,-99.9,29.73,North,-999,-999.0,-999.0,-999,0.00,,,0.00,weatherlink.com 1.10,2013-11-03 05:45:00,
2013-11-03 01:00:00,-999.0,-99.9,29.74,North,-999,-999.0,-999.0,-999,0.00,,,0.00,weatherlink.com 1.10,2013-11-03 06:00:00,
2013-11-03 01:15:00,-999.0,-99.9,29.74,North,-999,-999.0,-999.0,-999,0.00,,,0.00,weatherlink.com 1.10,2013-11-03 06:15:00,
2013-11-03 01:30:00,-999.0,-99.9,29.75,North,-999,-999.0,-999.0,-999,0.00,,,0.00,weatherlink.com 1.10,2013-11-03 06:30:00,
2013-11-03 01:45:00,-999.0,-99.9,29.75,North,-999,-999.0,-999.0,-999,0.00,,,0.00,weatherlink.com 1.10,2013-11-03 06:45:00,
2013-11-03 02:00:00,-999.0,-99.9,29.76,North,-999,-999.0,-999.0,-999,0.00,,,0.00,weatherlink.com 1.10,2013-11-03 07:00:00,
2013-11-03 02:16:00,-999.0,-99.9,29.77,North,-999,-999.0,-999.0,-999,0.00,,,0.00,weatherlink.com 1.10,2013-11-03 07:16:00,
2013-11-03 02:31:00,-999.0,-99.9,29.78,North,-999,-999.0,-999.0,-999,0.00,,,0.00,weatherlink.com 1.10,2013-11-03 07:31:00,
2013-11-03 02:46:00,-999.0,-99.9,29.78,North,-999,-999.0,-999.0,-999,0.00,,,0.00,weatherlink.com 1.10,2013-11-03 07:46:00,
2013-11-03 03:01:00,-999.0,-99.9,29.79,North,-999,-999.0,-999.0,-999,0.00,,,0.00,weatherlink.com 1.10,2013-11-03 08:01:00,
2013-11-03 03:16:00,-999.0,-99.9,29.80,North,-999,-999.0,-999.0,-999,0.00,,,0.00,weatherlink.com 1.10,2013-11-03 08:16:00,
2013-11-03 03:31:00,-999.0,-99.9,29.81,North,-999,-999.0,-999.0,-999,0.00,,,0.00,weatherlink.com 1.10,2013-11-03 08:31:00,
2013-11-03 03:46:00,-999.0,-99.9,29.82,North,-999,-999.0,-999.0,-999,0.00,,,0.00,weatherlink.com 1.10,2013-11-03 08:46:00,
2013-11-03 04:01:00,-999.0,-99.9,29.83,North,-999,-999.0,-999.0,-999,0.00,,,0.00,weatherlink.com 1.10,2013-11-03 09:01:00,
2013-11-03 04:16:00,-999.0,-99.9,29.84,North,-999,-999.0,-999.0,-999,0.00,,,0.00,weatherlink.com 1.10,2013-11-03 09:16:00,
2013-11-03 04:31:00,-999.0,-99.9,29.85,North,-999,-999.0,-999.0,-999,0.00,,,0.00,weatherlink.com 1.10,2013-11-03 09:31:00,
2013-11-03 04:46:00,-999.0,-99.9,29.86,North,-999,-999.0,-999.0,-999,0.00,,,0.00,weatherlink.com 1.10,2013-11-03 09:46:00,
2013-11-03 05:01:00,-999.0,-99.9,29.86,North,-999,-999.0,-999.0,-999,0.00,,,0.00,weatherlink.com 1.10,2013-11-03 10:01:00,
2013-11-03 05:16:00,-999.0,-99.9,29.87,North,-999,-999.0,-999.0,-999,0.00,,,0.00,weatherlink.com 1.10,2013-11-03 10:16:00,
2013-11-03 05:31:00,-999.0,-99.9,29.87,North,-999,-999.0,-999.0,-999,0.00,,,0.00,weatherlink.com 1.10,2013-11-03 10:31:00,
2013-11-03 05:47:00,-999.0,-99.9,29.88,North,-999,-999.0,-999.0,-999,0.00,,,0.00,weatherlink.com 1.10,2013-11-03 10:47:00,
2013-11-03 06:02:00,-999.0,-99.9,29.89,North,-999,-999.0,-999.0,-999,0.00,,,0.00,weatherlink.com 1.10,2013-11-03 11:02:00,
2013-11-03 06:17:00,-999.0,-99.9,29.91,North,-999,-999.0,-999.0,-999,0.00,,,0.00,weatherlink.com 1.10,2013-11-03 11:17:00,
2013-11-03 06:32:00,-999.0,-99.9,29.92,North,-999,-999.0,-999.0,-999,0.00,,,0.00,weatherlink.com 1.10,2013-11-03 11:32:00,
2013-11-03 06:47:00,-999.0,-99.9,29.92,North,-999,-999.0,-999.0,-999,0.00,,,0.00,weatherlink.com 1.10,2013-11-03 11:47:00,
2013-11-03 07:02:00,-999.0,-99.9,29.94,North,-999,-999.0,-999.0,-999,0.00,,,0.00,weatherlink.com 1.10,2013-11-03 12:02:00,
2013-11-03 07:17:00,-999.0,-99.9,29.95,North,-999,-999.0,-999.0,-999,0.00,,,0.00,weatherlink.com 1.10,2013-11-03 12:17:00,
2013-11-03 07:32:00,-999.0,-99.9,29.96,North,-999,-999.0,-999.0,-999,0.00,,,0.00,weatherlink.com 1.10,2013-11-03 12:32:00,
2013-11-03 07:47:00,45.5,39.0,29.97,SW,217,4.0,5.0,78,0.00,,,0.00,weatherlink.com 1.10,2013-11-03 12:47:00,
2013-11-03 08:02:00,45.6,39.0,29.98,SW,231,1.0,6.0,78,0.00,,,0.00,weatherlink.com 1.10,2013-11-03 13:02:00,
2013-11-03 08:17:00,45.6,39.0,29.99,ESE,110,0.0,8.0,78,0.00,,,0.00,weatherlink.com 1.10,2013-11-03 13:17:00,
2013-11-03 08:32:00,45.9,39.0,29.99,ENE,58,6.0,9.0,77,0.00,,,0.00,weatherlink.com 1.10,2013-11-03 13:32:00,
2013-11-03 08:47:00,46.2,40.0,30.00,NNW,343,2.0,7.0,78,0.00,,,0.00,weatherlink.com 1.10,2013-11-03 13:47:00,
2013-11-03 09:03:00,46.3,40.0,30.00,SE,124,3.0,6.0,78,0.00,,,0.00,weatherlink.com 1.10,2013-11-03 14:03:00,
2013-11-03 09:17:00,46.5,40.0,30.01,ESE,102,1.0,7.0,77,0.00,,,0.00,weatherlink.com 1.10,2013-11-03 14:17:00,
2013-11-03 09:32:00,47.1,40.0,30.02,NE,41,4.0,6.0,77,0.00,,,0.00,weatherlink.com 1.10,2013-11-03 14:32:00,
2013-11-03 09:47:00,48.0,41.0,30.02,SW,215,2.0,7.0,76,0.00,,,0.00,weatherlink.com 1.10,2013-11-03 14:47:00,
2013-11-03 10:03:00,47.7,40.0,30.03,SE,143,2.0,6.0,75,0.00,,,0.00,weatherlink.com 1.10,2013-11-03 15:03:00,
2013-11-03 10:18:00,47.7,40.0,30.04,ENE,75,3.0,6.0,75,0.00,,,0.00,weatherlink.com 1.10,2013-11-03 15:18:00,
2013-11-03 10:33:00,48.0,41.0,30.05,SE,135,2.0,7.0,76,0.00,,,0.00,weatherlink.com 1.10,2013-11-03 15:33:00,
2013-11-03 10:48:00,48.1,40.0,30.05,SSE,166,2.0,6.0,74,0.00,,,0.00,weatherlink.com 1.10,2013-11-03 15:48:00,
2013-11-03 11:03:00,48.8,40.0,30.06,South,169,1.0,7.0,72,0.00,,,0.00,weatherlink.com 1.10,2013-11-03 16:03:00,
2013-11-03 11:18:00,48.6,40.0,30.06,ESE,102,1.0,5.0,72,0.00,,,0.00,weatherlink.com 1.10,2013-11-03 16:18:00,
2013-11-03 11:33:00,47.6,39.0,30.07,SE,145,5.0,9.0,72,0.00,,,0.00,weatherlink.com 1.10,2013-11-03 16:33:00,
2013-11-03 11:48:00,47.2,39.0,30.07,SE,126,2.0,6.0,74,0.00,,,0.00,weatherlink.com 1.10,2013-11-03 16:48:00,
2013-11-03 12:03:00,47.6,40.0,30.07,WSW,238,2.0,5.0,74,0.00,,,0.00,weatherlink.com 1.10,2013-11-03 17:03:00,
2013-11-03 12:18:00,47.8,40.0,30.07,WSW,255,3.0,5.0,73,0.00,,,0.00,weatherlink.com 1.10,2013-11-03 17:18:00,
2013-11-03 12:33:00,47.8,39.0,30.07,ENE,78,2.0,5.0,72,0.00,,,0.00,weatherlink.com 1.10,2013-11-03 17:33:00,
2013-11-03 12:48:00,48.1,39.0,30.08,ENE,63,6.0,6.0,71,0.00,,,0.00,weatherlink.com 1.10,2013-11-03 17:48:00,
2013-11-03 13:03:00,48.3,39.0,30.08,ESE,105,2.0,5.0,70,0.00,,,0.00,weatherlink.com 1.10,2013-11-03 18:03:00,
2013-11-03 13:18:00,48.0,39.0,30.08,NNW,346,2.0,6.0,70,0.00,,,0.00,weatherlink.com 1.10,2013-11-03 18:18:00,
2013-11-03 13:33:00,48.2,38.0,30.09,East,100,1.0,5.0,69,0.00,,,0.00,weatherlink.com 1.10,2013-11-03 18:33:00,
2013-11-03 13:48:00,48.3,39.0,30.09,SW,236,2.0,5.0,69,0.00,,,0.00,weatherlink.com 1.10,2013-11-03 18:48:00,
2013-11-03 14:03:00,48.0,38.0,30.10,SSW,197,1.0,9.0,68,0.00,,,0.00,weatherlink.com 1.10,2013-11-03 19:03:00,
2013-11-03 14:18:00,48.1,38.0,30.11,South,181,1.0,6.0,68,0.00,,,0.00,weatherlink.com 1.10,2013-11-03 19:18:00,
2013-11-03 14:33:00,48.1,38.0,30.11,NNE,25,1.0,4.0,68,0.00,,,0.00,weatherlink.com 1.10,2013-11-03 19:33:00,
2013-11-03 14:48:00,48.0,37.0,30.12,SSE,155,0.0,4.0,67,0.00,,,0.00,weatherlink.com 1.10,2013-11-03 19:48:00,
2013-11-03 15:03:00,48.0,37.0,30.12,SSE,160,2.0,3.0,66,0.00,,,0.00,weatherlink.com 1.10,2013-11-03 20:03:00,
2013-11-03 15:18:00,47.8,36.0,30.13,SSE,152,2.0,5.0,65,0.00,,,0.00,weatherlink.com 1.10,2013-11-03 20:18:00,
2013-11-03 15:33:00,47.1,36.0,30.13,ESE,122,1.0,5.0,65,0.00,,,0.00,weatherlink.com 1.10,2013-11-03 20:33:00,
2013-11-03 15:48:00,47.0,35.0,30.14,ESE,103,1.0,5.0,64,0.00,,,0.00,weatherlink.com 1.10,2013-11-03 20:48:00,
2013-11-03 16:03:00,46.7,35.0,30.15,ESE,105,0.0,5.0,63,0.00,,,0.00,weatherlink.com 1.10,2013-11-03 21:03:00,
2013-11-03 16:18:00,46.6,34.0,30.16,East,94,2.0,3.0,63,0.00,,,0.00,weatherlink.com 1.10,2013-11-03 21:18:00,
2013-11-03 16:33:00,46.4,34.0,30.17,ENE,65,1.0,2.0,62,0.00,,,0.00,weatherlink.com 1.10,2013-11-03 21:33:00,
2013-11-03 16:48:00,46.2,34.0,30.18,ENE,58,1.0,3.0,62,0.00,,,0.00,weatherlink.com 1.10,2013-11-03 21:48:00,
2013-11-03 17:03:00,46.5,34.0,30.19,South,172,2.0,4.0,61,0.00,,,0.00,weatherlink.com 1.10,2013-11-03 22:03:00,
2013-11-03 17:19:00,46.5,27.0,30.19,SSE,167,0.0,6.0,47,0.00,,,0.00,weatherlink.com 1.10,2013-11-03 22:19:00,
2013-11-03 17:34:00,46.3,27.0,30.20,SSE,167,2.0,6.0,47,0.00,,,0.00,weatherlink.com 1.10,2013-11-03 22:34:00,
2013-11-03 17:49:00,46.1,27.0,30.21,SW,225,2.0,7.0,48,0.00,,,0.00,weatherlink.com 1.10,2013-11-03 22:49:00,
2013-11-03 18:04:00,45.7,27.0,30.22,SE,131,3.0,6.0,48,0.00,,,0.00,weatherlink.com 1.10,2013-11-03 23:04:00,
2013-11-03 18:19:00,45.4,27.0,30.23,SSE,151,1.0,7.0,48,0.00,,,0.00,weatherlink.com 1.10,2013-11-03 23:19:00,
2013-11-03 18:34:00,45.3,27.0,30.24,SE,132,1.0,5.0,50,0.00,,,0.00,weatherlink.com 1.10,2013-11-03 23:34:00,
2013-11-03 18:49:00,45.0,27.0,30.25,SE,131,1.0,4.0,50,0.00,,,0.00,weatherlink.com 1.10,2013-11-03 23:49:00,
2013-11-03 19:04:00,44.6,26.0,30.25,SE,131,1.0,5.0,49,0.00,,,0.00,weatherlink.com 1.10,2013-11-04 00:04:00,
2013-11-03 19:19:00,43.9,25.0,30.26,WSW,240,6.0,6.0,48,0.00,,,0.00,weatherlink.com 1.10,2013-11-04 00:19:00,
2013-11-03 19:34:00,43.5,25.0,30.26,ENE,74,5.0,6.0,49,0.00,,,0.00,weatherlink.com 1.10,2013-11-04 00:34:00,
2013-11-03 19:49:00,43.2,26.0,30.27,SE,129,1.0,9.0,50,0.00,,,0.00,weatherlink.com 1.10,2013-11-04 00:49:00,
2013-11-03 20:04:00,42.6,26.0,30.28,SE,142,2.0,6.0,52,0.00,,,0.00,weatherlink.com 1.10,2013-11-04 01:04:00,
2013-11-03 20:19:00,42.0,25.0,30.29,SE,146,2.0,5.0,52,0.00,,,0.00,weatherlink.com 1.10,2013-11-04 01:19:00,
2013-11-03 20:34:00,41.4,26.0,30.30,SE,129,3.0,6.0,54,0.00,,,0.00,weatherlink.com 1.10,2013-11-04 01:34:00,
2013-11-03 20:49:00,40.9,25.0,30.31,SSW,208,2.0,6.0,54,0.00,,,0.00,weatherlink.com 1.10,2013-11-04 01:49:00,
2013-11-03 21:04:00,40.5,25.0,30.31,SE,126,4.0,7.0,55,0.00,,,0.00,weatherlink.com 1.10,2013-11-04 02:04:00,
2013-11-03 21:19:00,40.2,25.0,30.32,SW,226,2.0,9.0,55,0.00,,,0.00,weatherlink.com 1.10,2013-11-04 02:19:00,
2013-11-03 21:34:00,39.6,23.0,30.33,SE,131,1.0,7.0,52,0.00,,,0.00,weatherlink.com 1.10,2013-11-04 02:34:00,
2013-11-03 21:49:00,39.2,22.0,30.33,SW,214,3.0,11.0,51,0.00,,,0.00,weatherlink.com 1.10,2013-11-04 02:49:00,
2013-11-03 22:04:00,38.9,22.0,30.34,SE,136,3.0,9.0,50,0.00,,,0.00,weatherlink.com 1.10,2013-11-04 03:04:00,
2013-11-03 22:19:00,38.5,22.0,30.34,West,259,1.0,6.0,51,0.00,,,0.00,weatherlink.com 1.10,2013-11-04 03:19:00,
2013-11-03 22:34:00,38.0,23.0,30.35,SE,131,3.0,8.0,55,0.00,,,0.00,weatherlink.com 1.10,2013-11-04 03:34:00,
2013-11-03 22:50:00,37.5,23.0,30.36,SE,142,1.0,9.0,56,0.00,,,0.00,weatherlink.com 1.10,2013-11-04 03:50:00,
2013-11-03 23:05:00,36.9,23.0,30.36,East,101,2.0,6.0,57,0.00,,,0.00,weatherlink.com 1.10,2013-11-04 04:05:00,
2013-11-03 23:20:00,36.5,23.0,30.37,South,180,2.0,7.0,58,0.00,,,0.00,weatherlink.com 1.10,2013-11-04 04:20:00,
2013-11-03 23:35:00,36.1,22.0,30.37,WNW,290,1.0,5.0,58,0.00,,,0.00,weatherlink.com 1.10,2013-11-04 04:35:00,
2013-11-03 23:50:00,35.7,22.0,30.38,SSW,194,0.0,8.0,58,0.00,,,0.00,weatherlink.com 1.10,2013-11-04 04:50:00,